Time;durP1;ratioP1;P1;durP2;ratioP2;P2;SDS_P1;SDS_P2;PMS_P1;PMS_P2;Temp;Humidity;BMP_temperature;BMP_pressure;BME280_temperature;BME280_humidity;BME280_pressure;Samples;Min_cycle;Max_cycle;Signal;HPM_P1;HPM_P2
2022/04/03 00:00:16;;;;;;;7.50;4.30;;;19.70;95.70;;;;;;1878727;74;21178;-82
2022/04/03 00:02:46;;;;;;;6.20;4.10;;;19.70;95.70;;;;;;1897848;74;21071;-81
2022/04/03 00:05:19;;;;;;;6.53;3.70;;;19.70;95.80;;;;;;1899773;75;21460;-81
2022/04/03 00:07:50;;;;;;;8.63;3.95;;;19.70;95.70;;;;;;1902914;75;21203;-80
2022/04/03 00:10:22;;;;;;;7.42;3.77;;;19.70;95.60;;;;;;1921430;74;21154;-80
2022/04/03 00:12:53;;;;;;;7.30;4.22;;;19.70;95.60;;;;;;1911603;73;21075;-82
2022/04/03 00:15:24;;;;;;;6.47;4.00;;;19.70;95.50;;;;;;1885458;74;21641;-82
2022/04/03 00:17:56;;;;;;;5.03;4.03;;;19.70;95.80;;;;;;1851072;76;21091;-82
2022/04/03 00:20:26;;;;;;;5.30;3.92;;;19.80;95.60;;;;;;1908061;74;21122;-82
2022/04/03 00:22:57;;;;;;;11.57;4.53;;;19.80;95.30;;;;;;1884357;74;21156;-80
2022/04/03 00:25:28;;;;;;;8.13;4.55;;;19.80;95.20;;;;;;1874119;75;21582;-81
2022/04/03 00:28:00;;;;;;;8.90;4.65;;;19.90;95.20;;;;;;1897402;74;21690;-81
2022/04/03 00:30:31;;;;;;;7.28;4.50;;;19.90;95.30;;;;;;1907584;74;21125;-82
2022/04/03 00:33:02;;;;;;;6.80;4.75;;;19.90;95.20;;;;;;1895209;74;21055;-81
2022/04/03 00:35:33;;;;;;;4.97;3.67;;;20.00;95.00;;;;;;1894572;74;21138;-82
2022/04/03 00:38:03;;;;;;;6.87;3.55;;;20.00;94.90;;;;;;1895405;74;21138;-82
2022/04/03 00:40:34;;;;;;;5.20;3.50;;;20.10;94.50;;;;;;1882514;74;21187;-83
2022/04/03 00:43:05;;;;;;;4.83;3.70;;;20.10;94.50;;;;;;1898127;75;21080;-83
2022/04/03 00:45:37;;;;;;;7.65;4.20;;;20.10;94.60;;;;;;1887441;74;21745;-82
2022/04/03 00:48:08;;;;;;;6.05;4.22;;;20.20;94.40;;;;;;1905246;74;21609;-82
2022/04/03 00:50:40;;;;;;;6.17;4.35;;;20.20;94.30;;;;;;1888167;74;21565;-83
2022/04/03 00:53:12;;;;;;;5.05;3.47;;;20.30;94.00;;;;;;1893036;74;21135;-82
2022/04/03 00:55:44;;;;;;;4.50;3.15;;;20.30;94.10;;;;;;1891936;74;21873;-82
2022/04/03 00:58:17;;;;;;;4.62;3.40;;;20.30;93.80;;;;;;1894692;74;21582;-82
2022/04/03 01:00:49;;;;;;;4.35;3.30;;;20.30;93.80;;;;;;1894236;74;21068;-82
2022/04/03 01:03:19;;;;;;;10.18;4.00;;;20.40;93.60;;;;;;1890214;74;21118;-81
2022/04/03 01:05:50;;;;;;;5.78;3.58;;;20.40;93.50;;;;;;1881114;75;21226;-82
2022/04/03 01:08:23;;;;;;;4.50;3.08;;;20.40;93.40;;;;;;1883530;74;21553;-84
2022/04/03 01:10:55;;;;;;;5.05;2.77;;;20.50;93.20;;;;;;1894063;75;21079;-81
2022/04/03 01:13:37;;;;;;;5.55;3.60;;;20.50;93.50;;;;;;1900005;75;21062;-80
2022/04/03 01:16:08;;;;;;;5.45;3.35;;;20.60;93.40;;;;;;1896535;74;21119;-72
2022/04/03 01:18:44;;;;;;;5.70;3.42;;;20.60;93.10;;;;;;1890344;75;21226;-72
2022/04/03 01:21:17;;;;;;;6.65;2.90;;;20.70;92.80;;;;;;1907000;74;21048;-73
2022/04/03 01:23:50;;;;;;;4.87;3.65;;;20.70;92.50;;;;;;1871529;75;21594;-71
2022/04/03 01:26:21;;;;;;;6.22;3.30;;;20.80;92.40;;;;;;1887273;75;21194;-72
2022/04/03 01:28:53;;;;;;;5.75;3.65;;;20.90;92.10;;;;;;1876485;75;21190;-72
2022/04/03 01:31:27;;;;;;;7.47;3.33;;;20.90;92.20;;;;;;1882172;75;21163;-71
2022/04/03 01:33:58;;;;;;;5.55;3.00;;;20.90;92.20;;;;;;1890521;74;21168;-70
2022/04/03 01:36:32;;;;;;;4.65;3.17;;;21.00;91.90;;;;;;1900595;74;21172;-73
2022/04/03 01:39:06;;;;;;;8.13;4.00;;;21.10;91.70;;;;;;1897405;74;21073;-70
2022/04/03 01:41:38;;;;;;;6.75;3.42;;;21.20;91.30;;;;;;1896827;75;21121;-73
2022/04/03 01:44:11;;;;;;;7.95;3.27;;;21.30;91.30;;;;;;1885685;75;21085;-73
2022/04/03 01:46:43;;;;;;;4.50;3.47;;;21.40;91.20;;;;;;1878474;75;21179;-72
2022/04/03 01:49:14;;;;;;;6.55;3.60;;;21.40;90.60;;;;;;1894812;75;21076;-70
2022/04/03 01:51:45;;;;;;;6.10;3.55;;;21.50;90.30;;;;;;1893139;74;21124;-73
2022/04/03 01:54:15;;;;;;;7.10;3.05;;;21.50;90.10;;;;;;1893804;74;21199;-72
2022/04/03 01:56:46;;;;;;;7.42;3.40;;;21.50;90.40;;;;;;1911938;74;21175;-71
2022/04/03 01:59:17;;;;;;;6.45;3.55;;;21.50;90.30;;;;;;1893039;75;21096;-72
2022/04/03 02:01:48;;;;;;;5.58;3.47;;;21.60;90.00;;;;;;1883977;74;21561;-72
2022/04/03 02:04:19;;;;;;;7.10;3.62;;;21.60;89.50;;;;;;1891066;74;21670;-72
2022/04/03 02:06:51;;;;;;;5.53;3.62;;;21.70;89.60;;;;;;1891828;75;21138;-72
2022/04/03 02:09:22;;;;;;;8.35;3.40;;;21.70;87.50;;;;;;1893576;74;21076;-72
2022/04/03 02:11:54;;;;;;;6.33;3.08;;;21.60;87.10;;;;;;1893464;74;21521;-72
2022/04/03 02:14:27;;;;;;;7.80;3.80;;;21.50;87.30;;;;;;1887571;74;21218;-71
2022/04/03 02:16:59;;;;;;;4.58;3.60;;;21.40;87.90;;;;;;1897488;74;21061;-72
2022/04/03 02:19:32;;;;;;;6.40;3.60;;;21.40;88.10;;;;;;1890300;74;21142;-71
2022/04/03 02:22:03;;;;;;;7.50;3.83;;;21.40;87.90;;;;;;1895381;74;21117;-70
2022/04/03 02:24:35;;;;;;;6.60;4.10;;;21.30;87.20;;;;;;1898064;74;21120;-69
2022/04/03 02:27:06;;;;;;;8.05;4.20;;;21.30;87.20;;;;;;1896590;75;21557;-70
2022/04/03 02:29:38;;;;;;;8.58;3.90;;;21.20;87.30;;;;;;1908092;75;21697;-71
2022/04/03 02:32:09;;;;;;;5.50;3.77;;;21.20;86.90;;;;;;1888280;75;21661;-70
2022/04/03 02:34:40;;;;;;;7.12;3.40;;;21.10;87.00;;;;;;1891778;75;21765;-71
2022/04/03 02:37:14;;;;;;;6.10;3.30;;;21.10;86.90;;;;;;1901085;74;21897;-71
2022/04/03 02:39:45;;;;;;;6.12;3.40;;;21.00;88.10;;;;;;1901588;74;21703;-72
2022/04/03 02:42:16;;;;;;;7.67;3.77;;;21.00;87.10;;;;;;1896875;75;21733;-73
2022/04/03 02:44:46;;;;;;;6.05;3.70;;;21.00;86.80;;;;;;1891235;74;21625;-73
2022/04/03 02:47:17;;;;;;;6.80;3.40;;;21.00;86.20;;;;;;1886721;74;21679;-73
2022/04/03 02:49:49;;;;;;;9.45;3.80;;;21.00;87.50;;;;;;1893330;75;21622;-74
2022/04/03 02:52:23;;;;;;;10.80;4.10;;;21.00;87.00;;;;;;1894784;75;21086;-73
2022/04/03 02:54:53;;;;;;;5.37;3.98;;;21.10;86.70;;;;;;1902038;74;21105;-72
2022/04/03 02:57:25;;;;;;;8.45;3.52;;;21.10;87.10;;;;;;1905621;75;21600;-73
2022/04/03 02:59:56;;;;;;;4.05;2.77;;;21.10;86.40;;;;;;1905037;75;21148;-72
2022/04/03 03:02:27;;;;;;;4.80;3.33;;;21.20;85.30;;;;;;1904676;74;21273;-73
2022/04/03 03:04:57;;;;;;;8.20;3.85;;;21.20;84.50;;;;;;1866992;75;21178;-73
2022/04/03 03:07:31;;;;;;;7.08;3.40;;;21.20;84.00;;;;;;1867692;75;21983;-73
2022/04/03 03:10:02;;;;;;;6.00;3.55;;;21.20;84.90;;;;;;1865681;77;21706;-73
2022/04/03 03:12:33;;;;;;;6.15;3.40;;;21.20;84.60;;;;;;1818264;77;21159;-73
2022/04/03 03:15:04;;;;;;;6.72;3.72;;;21.20;84.90;;;;;;1823709;77;21222;-73
2022/04/03 03:17:35;;;;;;;7.30;3.90;;;21.20;85.70;;;;;;1834816;76;21156;-74
2022/04/03 03:20:06;;;;;;;6.83;3.60;;;21.20;85.50;;;;;;1891171;75;21068;-74
2022/04/03 03:22:38;;;;;;;6.28;3.62;;;21.30;86.20;;;;;;1903611;74;21185;-73
2022/04/03 03:25:11;;;;;;;5.80;3.47;;;21.30;86.40;;;;;;1902857;75;21080;-73
2022/04/03 03:27:42;;;;;;;6.85;3.90;;;21.30;86.70;;;;;;1900473;73;22394;-73
2022/04/03 03:30:13;;;;;;;9.93;4.00;;;21.40;86.40;;;;;;1905444;75;21155;-72
2022/04/03 03:32:47;;;;;;;5.33;4.00;;;21.40;86.50;;;;;;1901300;75;21591;-73
2022/04/03 03:35:18;;;;;;;4.95;3.67;;;21.40;86.10;;;;;;1872029;75;21145;-74
2022/04/03 03:37:49;;;;;;;6.25;3.72;;;21.40;86.70;;;;;;1843559;76;21130;-73
2022/04/03 03:40:21;;;;;;;7.00;3.67;;;21.40;86.50;;;;;;1828701;77;21555;-73
2022/04/03 03:42:53;;;;;;;5.80;3.72;;;21.50;86.20;;;;;;1818353;77;21836;-72
2022/04/03 03:45:24;;;;;;;8.35;3.60;;;21.50;85.80;;;;;;1834921;77;21176;-74
2022/04/03 03:47:57;;;;;;;6.58;3.80;;;21.60;85.50;;;;;;1828936;77;21159;-73
2022/04/03 03:50:34;;;;;;;5.12;3.67;;;21.60;85.60;;;;;;1831638;78;21125;-72
2022/04/03 03:53:07;;;;;;;8.05;3.95;;;21.60;85.90;;;;;;1876922;75;21146;-73
2022/04/03 03:55:38;;;;;;;6.70;3.98;;;21.70;86.30;;;;;;1893070;75;21072;-74
2022/04/03 03:58:11;;;;;;;6.67;3.47;;;21.70;85.50;;;;;;1897135;75;21065;-72
2022/04/03 04:00:42;;;;;;;6.47;3.65;;;21.80;85.80;;;;;;1892932;75;21069;-71
2022/04/03 04:03:13;;;;;;;9.20;4.10;;;21.80;85.20;;;;;;1895745;75;21573;-73
2022/04/03 04:05:45;;;;;;;6.62;4.28;;;21.80;85.30;;;;;;1899759;75;21661;-71
2022/04/03 04:08:16;;;;;;;8.20;4.53;;;21.90;85.50;;;;;;1856929;76;21112;-73
2022/04/03 04:10:50;;;;;;;7.15;4.75;;;21.90;85.40;;;;;;1827514;77;21628;-71
2022/04/03 04:13:20;;;;;;;8.40;4.25;;;22.00;85.20;;;;;;1872970;76;21164;-73
2022/04/03 04:15:51;;;;;;;5.50;3.42;;;22.10;84.90;;;;;;1895257;75;21068;-73
2022/04/03 04:18:23;;;;;;;10.25;3.98;;;22.20;84.50;;;;;;1883900;75;21081;-71
2022/04/03 04:20:54;;;;;;;6.90;3.83;;;22.30;83.90;;;;;;1840494;75;21544;-72
2022/04/03 04:23:25;;;;;;;7.72;4.55;;;22.30;82.80;;;;;;1897548;74;21115;-73
2022/04/03 04:25:56;;;;;;;5.45;3.70;;;22.40;81.20;;;;;;1895241;75;21127;-73
2022/04/03 04:28:27;;;;;;;5.42;4.28;;;22.40;81.60;;;;;;1853106;76;21235;-73
2022/04/03 04:30:58;;;;;;;7.37;3.30;;;22.40;80.90;;;;;;1868716;76;21151;-73
2022/04/03 04:33:29;;;;;;;5.90;4.03;;;22.30;81.20;;;;;;1891213;74;21711;-73
2022/04/03 04:35:59;;;;;;;5.75;3.60;;;22.30;81.40;;;;;;1877353;75;21504;-72
2022/04/03 04:38:30;;;;;;;4.80;3.27;;;22.30;80.60;;;;;;1866628;75;21167;-73
2022/04/03 04:41:01;;;;;;;8.40;3.90;;;22.20;80.10;;;;;;1867218;75;21147;-71
2022/04/03 04:43:32;;;;;;;7.80;4.08;;;22.20;80.70;;;;;;1893856;75;22287;-71
2022/04/03 04:46:03;;;;;;;7.42;4.03;;;22.20;80.70;;;;;;1885327;75;21135;-71
2022/04/03 04:48:34;;;;;;;4.95;3.80;;;22.30;81.60;;;;;;1821842;77;21242;-84
2022/04/03 04:51:05;;;;;;;8.13;4.28;;;22.30;80.40;;;;;;1823719;78;21138;-84
2022/04/03 04:53:36;;;;;;;5.97;4.00;;;22.40;80.70;;;;;;1861169;77;21109;-84
2022/04/03 04:56:07;;;;;;;6.95;4.40;;;22.40;80.50;;;;;;1862848;75;21225;-84
2022/04/03 04:58:38;;;;;;;7.55;4.35;;;22.40;80.00;;;;;;1856202;77;21198;-84
2022/04/03 05:01:09;;;;;;;7.20;4.37;;;22.40;79.70;;;;;;1905659;75;21879;-85
2022/04/03 05:03:40;;;;;;;5.78;3.83;;;22.50;79.80;;;;;;1903112;75;21084;-83
2022/04/03 05:06:15;;;;;;;9.48;4.35;;;22.60;79.60;;;;;;1900879;74;21049;-80
2022/04/03 05:08:44;;;;;;;7.30;4.10;;;22.60;78.50;;;;;;1863750;75;21184;-80
2022/04/03 05:11:16;;;;;;;7.45;4.20;;;22.70;77.70;;;;;;1889773;74;21093;-79
2022/04/03 05:13:48;;;;;;;7.78;4.30;;;22.70;78.10;;;;;;1823851;78;21091;-80
2022/04/03 05:16:19;;;;;;;7.58;4.40;;;22.70;77.20;;;;;;1898320;75;21096;-80
2022/04/03 05:18:50;;;;;;;6.92;4.10;;;22.70;77.30;;;;;;1891901;75;21163;-80
2022/04/03 05:21:22;;;;;;;5.85;4.28;;;22.70;77.40;;;;;;1893724;75;21080;-80
2022/04/03 05:23:53;;;;;;;6.45;4.30;;;22.80;78.00;;;;;;1897235;75;21143;-80
2022/04/03 05:26:24;;;;;;;7.15;4.47;;;22.80;77.60;;;;;;1900258;75;21716;-80
2022/04/03 05:28:55;;;;;;;7.55;4.20;;;22.90;77.20;;;;;;1895407;75;21119;-79
2022/04/03 05:31:26;;;;;;;8.68;4.53;;;23.00;77.70;;;;;;1897290;75;21073;-80
2022/04/03 05:33:57;;;;;;;8.65;4.03;;;23.10;77.20;;;;;;1885125;75;21048;-79
2022/04/03 05:36:29;;;;;;;7.85;3.75;;;23.00;75.20;;;;;;1892583;75;21546;-80
2022/04/03 05:39:00;;;;;;;6.35;3.70;;;23.00;76.50;;;;;;1892388;75;21638;-79
2022/04/03 05:41:32;;;;;;;6.58;4.08;;;23.10;76.50;;;;;;1903207;74;22062;-71
2022/04/03 05:44:04;;;;;;;7.85;4.87;;;23.10;76.00;;;;;;1892349;75;21074;-73
2022/04/03 05:46:35;;;;;;;7.97;4.30;;;23.10;76.20;;;;;;1897678;75;21396;-72
2022/04/03 05:49:06;;;;;;;10.43;4.80;;;23.20;76.30;;;;;;1887975;75;21125;-71
2022/04/03 05:51:37;;;;;;;6.53;4.42;;;23.30;75.50;;;;;;1892845;75;21721;-72
2022/04/03 05:54:08;;;;;;;7.55;4.03;;;23.30;75.80;;;;;;1882527;75;21077;-73
2022/04/03 05:56:39;;;;;;;7.95;4.50;;;23.30;76.10;;;;;;1853345;75;21663;-72
2022/04/03 05:59:10;;;;;;;8.60;3.80;;;23.40;76.00;;;;;;1854520;76;21152;-71
2022/04/03 06:01:41;;;;;;;6.40;4.25;;;23.40;76.00;;;;;;1858307;75;21548;-70
2022/04/03 06:04:12;;;;;;;7.42;4.05;;;23.50;75.90;;;;;;1848958;76;21115;-70
2022/04/03 06:06:43;;;;;;;7.83;4.80;;;23.50;75.50;;;;;;1851348;76;21168;-72
2022/04/03 06:09:14;;;;;;;5.90;4.03;;;23.50;75.40;;;;;;1857222;76;21611;-71
2022/04/03 06:11:45;;;;;;;7.05;4.47;;;23.50;75.20;;;;;;1848139;77;21148;-70
2022/04/03 06:14:15;;;;;;;6.28;3.98;;;23.50;74.80;;;;;;1850428;76;21315;-70
2022/04/03 06:16:48;;;;;;;7.80;3.90;;;23.60;75.40;;;;;;1851116;76;21524;-69
2022/04/03 06:19:19;;;;;;;5.45;4.10;;;23.60;75.40;;;;;;1855277;75;21136;-70
2022/04/03 06:21:50;;;;;;;7.28;4.12;;;23.70;75.80;;;;;;1845641;76;21144;-82
2022/04/03 06:24:20;;;;;;;8.38;4.40;;;23.70;76.00;;;;;;1844165;76;21081;-81
2022/04/03 06:26:52;;;;;;;7.47;4.10;;;23.80;75.50;;;;;;1860833;76;21100;-81
2022/04/03 06:29:22;;;;;;;9.75;4.70;;;23.90;75.60;;;;;;1844056;76;21292;-81
2022/04/03 06:31:53;;;;;;;6.30;4.72;;;23.90;74.90;;;;;;1855771;75;21097;-80
2022/04/03 06:34:24;;;;;;;10.00;4.60;;;23.90;75.80;;;;;;1855557;76;21158;-81
2022/04/03 06:36:55;;;;;;;7.42;4.58;;;23.90;75.40;;;;;;1847883;75;21135;-81
2022/04/03 06:39:26;;;;;;;7.70;4.30;;;23.90;74.60;;;;;;1856343;76;21560;-81
2022/04/03 06:41:57;;;;;;;7.37;4.40;;;23.90;74.60;;;;;;1855716;76;21639;-80
2022/04/03 06:44:29;;;;;;;10.55;6.10;;;23.90;75.50;;;;;;1848440;77;21097;-80
2022/04/03 06:47:01;;;;;;;9.35;5.20;;;23.90;76.00;;;;;;1857896;76;21584;-80
2022/04/03 06:49:36;;;;;;;5.92;4.62;;;23.90;75.40;;;;;;1858317;77;21132;-82
2022/04/03 06:52:11;;;;;;;7.25;4.78;;;23.90;75.70;;;;;;1858113;77;21174;-81
2022/04/03 06:54:40;;;;;;;8.40;4.45;;;23.90;75.80;;;;;;1849419;77;21540;-82
2022/04/03 06:57:12;;;;;;;10.28;4.87;;;23.90;74.70;;;;;;1846860;76;21701;-81
2022/04/03 06:59:44;;;;;;;8.73;5.20;;;23.80;74.70;;;;;;1825349;78;21090;-80
2022/04/03 07:02:15;;;;;;;7.03;4.25;;;23.80;74.40;;;;;;1893602;75;21194;-83
2022/04/03 07:04:46;;;;;;;5.62;4.47;;;23.70;74.40;;;;;;1884867;74;21686;-81
2022/04/03 07:07:22;;;;;;;11.18;5.53;;;23.70;75.10;;;;;;1854095;76;21844;-80
2022/04/03 07:09:54;;;;;;;8.20;5.28;;;23.70;75.50;;;;;;1897616;74;22282;-80
2022/04/03 07:12:24;;;;;;;9.38;5.30;;;23.70;74.80;;;;;;1876080;75;21119;-80
2022/04/03 07:14:56;;;;;;;6.78;5.28;;;23.70;74.80;;;;;;1874554;75;21120;-82
2022/04/03 07:17:27;;;;;;;11.40;5.67;;;23.70;74.50;;;;;;1888186;75;21071;-81
2022/04/03 07:19:59;;;;;;;7.35;4.97;;;23.70;74.90;;;;;;1889521;75;21059;-80
2022/04/03 07:22:30;;;;;;;8.83;5.50;;;23.70;74.20;;;;;;1903023;75;21133;-80
2022/04/03 07:25:01;;;;;;;10.15;5.15;;;23.70;74.30;;;;;;1897446;75;21154;-81
2022/04/03 07:27:32;;;;;;;10.23;5.50;;;23.70;74.60;;;;;;1890431;75;21734;-80
2022/04/03 07:30:04;;;;;;;6.60;4.72;;;23.70;75.10;;;;;;1884361;75;21682;-81
2022/04/03 07:32:37;;;;;;;11.53;5.20;;;23.60;74.40;;;;;;1899277;75;21071;-80
2022/04/03 07:35:08;;;;;;;9.83;5.00;;;23.60;74.70;;;;;;1902556;75;21223;-80
2022/04/03 07:37:39;;;;;;;10.48;5.25;;;23.60;74.80;;;;;;1898830;75;21182;-80
2022/04/03 07:40:11;;;;;;;7.22;4.90;;;23.60;74.70;;;;;;1898188;75;21076;-81
2022/04/03 07:42:42;;;;;;;8.90;5.10;;;23.60;74.60;;;;;;1898470;75;21128;-80
2022/04/03 07:45:13;;;;;;;8.73;5.08;;;23.50;74.00;;;;;;1901790;75;21116;-80
2022/04/03 07:47:46;;;;;;;8.30;4.95;;;23.50;74.80;;;;;;1901679;75;21120;-78
2022/04/03 07:50:20;;;;;;;8.40;5.30;;;23.50;75.20;;;;;;1894179;75;21237;-80
2022/04/03 07:52:51;;;;;;;8.20;5.70;;;23.50;74.80;;;;;;1902686;75;21049;-81
2022/04/03 07:55:22;;;;;;;9.48;5.35;;;23.50;75.00;;;;;;1899268;75;21146;-80
2022/04/03 07:57:54;;;;;;;10.23;4.95;;;23.60;75.20;;;;;;1898841;75;21159;-80
2022/04/03 08:00:25;;;;;;;7.70;4.92;;;23.50;75.30;;;;;;1895173;75;21141;-80
2022/04/03 08:02:56;;;;;;;7.12;5.15;;;23.50;75.40;;;;;;1898047;75;21080;-80
2022/04/03 08:05:27;;;;;;;7.90;5.15;;;23.50;75.50;;;;;;1897024;75;21532;-80
2022/04/03 08:07:58;;;;;;;9.00;5.50;;;23.60;75.30;;;;;;1858436;76;21146;-80
2022/04/03 08:10:29;;;;;;;8.80;4.90;;;23.60;74.90;;;;;;1890518;75;21598;-80
2022/04/03 08:13:02;;;;;;;7.92;5.10;;;23.60;74.40;;;;;;1902850;75;21571;-79
2022/04/03 08:15:33;;;;;;;11.50;4.60;;;23.60;73.50;;;;;;1891157;75;21076;-80
2022/04/03 08:18:05;;;;;;;8.35;5.40;;;23.60;73.80;;;;;;1881415;76;21204;-80
2022/04/03 08:20:36;;;;;;;8.05;4.80;;;23.60;74.00;;;;;;1894851;75;21231;-79
2022/04/03 08:23:08;;;;;;;9.83;5.37;;;23.60;72.90;;;;;;1892597;75;21575;-80
2022/04/03 08:25:39;;;;;;;7.60;4.55;;;23.60;73.20;;;;;;1883126;75;21131;-82
2022/04/03 08:28:10;;;;;;;7.30;4.72;;;23.60;73.00;;;;;;1893913;75;21115;-80
2022/04/03 08:30:44;;;;;;;11.08;5.28;;;23.60;73.30;;;;;;1903154;75;21633;-80
2022/04/03 08:33:16;;;;;;;8.23;4.75;;;23.50;73.30;;;;;;1902558;75;21236;-80
2022/04/03 08:36:05;;;;;;;9.93;4.60;;;23.50;73.90;;;;;;1825059;78;21089;-80
2022/04/03 08:38:39;;;;;;;10.23;5.00;;;23.60;74.00;;;;;;1851730;77;21090;-79
2022/04/03 08:41:12;;;;;;;12.23;5.60;;;23.60;73.60;;;;;;1848977;77;21100;-79
2022/04/03 08:43:47;;;;;;;13.60;5.08;;;23.60;73.40;;;;;;1901884;75;21112;-80
2022/04/03 08:46:19;;;;;;;9.08;5.45;;;23.60;73.40;;;;;;1898202;75;21102;-79
2022/04/03 08:48:50;;;;;;;9.43;5.17;;;23.60;72.60;;;;;;1890446;75;21147;-79
2022/04/03 08:51:23;;;;;;;10.40;5.40;;;23.60;72.50;;;;;;1883209;76;21084;-80
2022/04/03 08:53:54;;;;;;;13.30;5.00;;;23.60;73.30;;;;;;1881676;76;21072;-79
2022/04/03 08:56:30;;;;;;;11.90;5.72;;;23.70;73.40;;;;;;1881499;76;21141;-79
2022/04/03 08:59:19;;;;;;;13.95;6.37;;;23.70;72.70;;;;;;1878938;75;21144;-80
2022/04/03 09:01:51;;;;;;;9.75;5.42;;;23.70;72.60;;;;;;1870572;75;21064;-79
2022/04/03 09:04:22;;;;;;;8.50;5.17;;;23.70;72.80;;;;;;1869398;77;21138;-79
2022/04/03 09:06:56;;;;;;;12.98;5.50;;;23.70;72.90;;;;;;1869394;76;21123;-79
2022/04/03 09:09:28;;;;;;;7.67;5.22;;;23.70;72.10;;;;;;1869319;77;21072;-79
2022/04/03 09:12:02;;;;;;;9.10;6.10;;;23.70;72.60;;;;;;1870839;76;21088;-79
2022/04/03 09:14:36;;;;;;;8.33;5.80;;;23.70;72.50;;;;;;1868551;76;21650;-79
2022/04/03 09:17:07;;;;;;;8.73;6.15;;;23.80;71.90;;;;;;1861745;76;21084;-78
2022/04/03 09:19:40;;;;;;;9.98;5.37;;;23.70;71.60;;;;;;1848275;77;21214;-79
2022/04/03 09:22:11;;;;;;;10.28;5.22;;;23.80;71.60;;;;;;1842968;77;21064;-78
2022/04/03 09:24:44;;;;;;;7.33;4.45;;;23.70;71.20;;;;;;1842555;77;21057;-80
2022/04/03 09:27:15;;;;;;;11.80;6.15;;;23.70;71.30;;;;;;1808012;78;21213;-80
2022/04/03 09:29:46;;;;;;;12.05;5.90;;;23.70;71.50;;;;;;1819288;78;21065;-79
2022/04/03 09:32:20;;;;;;;11.28;5.62;;;23.70;71.60;;;;;;1841957;77;21544;-79
2022/04/03 09:34:53;;;;;;;8.35;6.05;;;23.70;72.00;;;;;;1840205;77;21085;-79
2022/04/03 09:37:24;;;;;;;8.70;5.45;;;23.70;72.40;;;;;;1844728;77;21085;-80
2022/04/03 09:39:56;;;;;;;13.00;5.60;;;23.70;72.50;;;;;;1842536;77;21644;-80
2022/04/03 09:42:28;;;;;;;10.28;5.75;;;23.70;73.70;;;;;;1844336;76;21206;-80
2022/04/03 09:45:00;;;;;;;9.05;4.95;;;23.70;72.60;;;;;;1834397;77;21155;-79
2022/04/03 09:47:33;;;;;;;10.20;5.20;;;23.70;72.50;;;;;;1830044;78;21628;-79
2022/04/03 09:50:06;;;;;;;8.13;5.40;;;23.80;72.60;;;;;;1830316;78;21156;-80
2022/04/03 09:52:38;;;;;;;8.60;5.30;;;23.80;72.60;;;;;;1829922;78;21745;-79
2022/04/03 09:55:11;;;;;;;7.12;4.95;;;23.80;72.90;;;;;;1830253;78;21124;-79
2022/04/03 09:57:45;;;;;;;11.25;5.17;;;23.80;72.80;;;;;;1829887;78;21152;-79
2022/04/03 10:00:20;;;;;;;12.20;7.12;;;23.80;72.90;;;;;;1828069;77;21100;-79
2022/04/03 10:02:53;;;;;;;10.68;5.70;;;23.70;72.80;;;;;;1863811;77;21487;-78
2022/04/03 10:05:25;;;;;;;8.98;5.55;;;23.80;73.10;;;;;;1878335;76;21215;-79
2022/04/03 10:07:58;;;;;;;10.18;5.72;;;23.70;72.70;;;;;;1866866;76;21152;-78
2022/04/03 10:10:30;;;;;;;10.20;5.67;;;23.70;73.20;;;;;;1887611;75;21144;-78
2022/04/03 10:13:01;;;;;;;16.48;6.05;;;23.70;73.60;;;;;;1891124;75;21700;-78
2022/04/03 10:15:34;;;;;;;8.98;5.55;;;23.80;73.90;;;;;;1897583;75;21084;-79
2022/04/03 10:18:05;;;;;;;13.05;5.55;;;23.80;74.00;;;;;;1889748;75;21143;-79
2022/04/03 10:20:38;;;;;;;10.23;5.67;;;23.80;73.90;;;;;;1889558;75;21101;-79
2022/04/03 10:23:12;;;;;;;10.75;5.95;;;23.80;74.10;;;;;;1893095;74;21692;-80
2022/04/03 10:25:47;;;;;;;10.48;5.58;;;23.80;74.20;;;;;;1890055;75;21520;-78
2022/04/03 10:28:20;;;;;;;9.88;5.97;;;23.80;74.60;;;;;;1887855;75;21524;-80
2022/04/03 10:30:53;;;;;;;10.50;5.80;;;23.90;74.40;;;;;;1897352;75;21131;-79
2022/04/03 10:33:24;;;;;;;10.05;6.50;;;23.90;74.70;;;;;;1887878;75;21552;-78
2022/04/03 10:35:58;;;;;;;10.35;5.70;;;23.80;74.70;;;;;;1896582;75;21583;-80
2022/04/03 10:38:32;;;;;;;9.85;5.47;;;23.80;73.60;;;;;;1895124;75;21136;-80
2022/04/03 10:41:05;;;;;;;9.90;5.70;;;23.80;74.00;;;;;;1894136;75;21104;-80
2022/04/03 10:43:38;;;;;;;12.65;5.80;;;23.80;73.60;;;;;;1890477;75;21202;-79
2022/04/03 10:46:09;;;;;;;11.30;6.50;;;23.80;73.80;;;;;;1894645;75;21237;-79
2022/04/03 10:48:43;;;;;;;11.75;6.30;;;23.80;74.10;;;;;;1895167;75;21704;-78
2022/04/03 10:51:17;;;;;;;7.65;5.05;;;23.80;73.50;;;;;;1888079;75;21631;-79
2022/04/03 10:53:50;;;;;;;9.33;5.90;;;23.80;74.80;;;;;;1887398;76;21613;-79
2022/04/03 10:56:23;;;;;;;12.63;6.87;;;23.80;75.00;;;;;;1889185;76;21100;-79
2022/04/03 10:58:58;;;;;;;13.13;5.70;;;23.80;75.00;;;;;;1889156;76;21179;-79
2022/04/03 11:01:30;;;;;;;10.58;6.33;;;23.70;75.10;;;;;;1889803;75;21065;-79
2022/04/03 11:04:06;;;;;;;10.68;6.03;;;23.70;75.40;;;;;;1891640;75;21194;-80
2022/04/03 11:06:40;;;;;;;11.40;6.92;;;23.70;75.50;;;;;;1891210;76;21132;-78
2022/04/03 11:09:13;;;;;;;12.73;6.87;;;23.70;75.60;;;;;;1891744;76;21139;-79
2022/04/03 11:11:45;;;;;;;14.30;7.42;;;23.70;75.70;;;;;;1891128;75;21072;-79
2022/04/03 11:14:18;;;;;;;12.82;7.50;;;23.70;75.80;;;;;;1891807;75;21089;-79
2022/04/03 11:16:51;;;;;;;12.00;7.37;;;23.70;77.10;;;;;;1888917;75;21093;-79
2022/04/03 11:19:24;;;;;;;11.70;6.75;;;23.70;76.20;;;;;;1892061;75;21089;-78
2022/04/03 11:21:58;;;;;;;12.95;7.60;;;23.70;76.30;;;;;;1890453;75;21065;-78
2022/04/03 11:24:30;;;;;;;12.73;6.30;;;23.70;76.30;;;;;;1892175;76;21089;-79
2022/04/03 11:27:01;;;;;;;14.83;6.42;;;23.60;76.50;;;;;;1892199;76;21063;-78
2022/04/03 11:29:34;;;;;;;12.78;7.40;;;23.60;76.70;;;;;;1891999;76;21525;-79
2022/04/03 11:32:09;;;;;;;16.42;8.33;;;23.60;76.80;;;;;;1893377;75;21135;-78
2022/04/03 11:34:40;;;;;;;14.75;7.83;;;23.60;76.80;;;;;;1894015;76;21136;-79
2022/04/03 11:37:13;;;;;;;14.40;9.90;;;23.60;77.10;;;;;;1892089;75;21143;-79
2022/04/03 11:39:44;;;;;;;12.70;6.60;;;23.60;77.30;;;;;;1891838;76;21135;-79
2022/04/03 11:42:15;;;;;;;11.00;6.78;;;23.50;77.10;;;;;;1891849;76;21076;-79
2022/04/03 11:44:48;;;;;;;17.12;7.05;;;23.50;77.40;;;;;;1891665;75;21964;-79
2022/04/03 11:47:22;;;;;;;12.33;7.55;;;23.50;77.20;;;;;;1891990;75;21054;-79
2022/04/03 11:49:58;;;;;;;11.93;7.10;;;23.50;77.30;;;;;;1891867;75;21155;-78
2022/04/03 11:52:28;;;;;;;9.80;7.28;;;23.50;76.80;;;;;;1890101;75;21088;-79
2022/04/03 11:55:00;;;;;;;13.78;7.17;;;23.50;76.80;;;;;;1891850;75;21124;-79
2022/04/03 11:57:31;;;;;;;12.23;6.97;;;23.50;76.70;;;;;;1892152;76;21485;-80
2022/04/03 12:00:03;;;;;;;15.13;7.03;;;23.50;77.10;;;;;;1891938;76;21220;-80
2022/04/03 12:02:34;;;;;;;12.80;7.90;;;23.50;77.00;;;;;;1890757;76;21080;-79
2022/04/03 12:05:06;;;;;;;12.88;7.65;;;23.50;76.70;;;;;;1888472;76;21634;-79
2022/04/03 12:07:38;;;;;;;11.95;7.40;;;23.50;76.70;;;;;;1888907;75;21077;-79
2022/04/03 12:10:09;;;;;;;16.73;9.23;;;23.50;76.60;;;;;;1888878;76;21085;-79
2022/04/03 12:12:40;;;;;;;13.93;8.73;;;23.50;76.20;;;;;;1888668;76;21210;-80
2022/04/03 12:15:13;;;;;;;10.70;7.58;;;23.50;75.60;;;;;;1887670;76;21642;-79
2022/04/03 12:17:45;;;;;;;17.00;7.28;;;23.40;75.60;;;;;;1888114;76;21073;-79
2022/04/03 12:20:16;;;;;;;13.65;7.00;;;23.40;75.40;;;;;;1889174;76;21529;-78
2022/04/03 12:22:49;;;;;;;13.45;7.30;;;23.40;75.60;;;;;;1891087;75;21147;-78
2022/04/03 12:25:21;;;;;;;14.13;9.18;;;23.40;75.10;;;;;;1889391;76;21572;-79
2022/04/03 12:27:54;;;;;;;15.35;7.10;;;23.40;75.20;;;;;;1888699;76;21768;-80
2022/04/03 12:30:27;;;;;;;12.18;7.87;;;23.40;75.50;;;;;;1887660;76;21217;-80
2022/04/03 12:32:58;;;;;;;10.35;6.45;;;23.30;75.00;;;;;;1887906;76;21144;-79
2022/04/03 12:35:31;;;;;;;12.85;7.15;;;23.40;74.90;;;;;;1888054;76;21214;-79
2022/04/03 12:38:08;;;;;;;13.32;6.90;;;23.40;74.90;;;;;;1887094;76;21053;-79
2022/04/03 12:40:38;;;;;;;11.00;6.83;;;23.40;74.80;;;;;;1891031;75;21155;-80
2022/04/03 12:43:09;;;;;;;12.07;7.42;;;23.30;74.90;;;;;;1887905;76;21092;-79
2022/04/03 12:45:40;;;;;;;15.63;7.55;;;23.30;74.70;;;;;;1889694;76;21644;-79
2022/04/03 12:48:13;;;;;;;12.85;7.25;;;23.30;74.50;;;;;;1889339;76;21611;-79
2022/04/03 12:50:46;;;;;;;13.55;7.20;;;23.30;74.90;;;;;;1889171;76;21085;-79
2022/04/03 12:53:17;;;;;;;16.25;8.00;;;23.30;75.10;;;;;;1889279;76;21545;-79
2022/04/03 12:55:51;;;;;;;12.43;7.08;;;23.30;74.80;;;;;;1888999;76;21081;-79
2022/04/03 12:58:33;;;;;;;18.12;9.53;;;23.30;75.10;;;;;;1889113;76;21226;-79
2022/04/03 13:01:06;;;;;;;16.85;9.30;;;23.30;74.70;;;;;;1889352;75;21549;-79
2022/04/03 13:03:37;;;;;;;19.73;7.67;;;23.30;75.00;;;;;;1889328;75;21187;-79
2022/04/03 13:06:10;;;;;;;14.73;8.08;;;23.30;74.70;;;;;;1891293;75;21513;-79